Kennebec, South Dakota
Current Conditions -  °F | °C
As of 7:15 AM on Thursday 30 Oct 2014 (Local Time) from K9V9 Reporting Station
Clear Clear  
Wind Chill: 34°   Ceiling: Unl
Heat Index: 41°   Visibility: 10mi
Dew Point: 35°   Wind: 13mph
Humidity: 79%   Direction: 340°NNW
Pressure: 30.1"   Gusts: NA
Location:  43.9°N, 99.86°W
Report Text: K9V9 301215Z AUTO 34011KT 10SM CLR 05/02 A3010 RMK AO2 T00500017
Loading
Personal Weather Stations






























Interactive Weather Map New forecast layout! Learn more

10-Day Weather Forecast

Advertisements
Track Severe Weather on mobile